sensor_id;sensor_type;location;lat;lon;timestamp;pressure;altitude;pressure_sealevel;temperature;humidity
78064;BME280;67429;51.596;-3.264;2023-07-13T00:02:07;99364.40;;;12.95;64.03
78064;BME280;67429;51.596;-3.264;2023-07-13T00:04:32;99361.78;;;13.04;63.06
78064;BME280;67429;51.596;-3.264;2023-07-13T00:06:57;99362.00;;;13.58;62.11
78064;BME280;67429;51.596;-3.264;2023-07-13T00:09:23;99366.87;;;13.70;62.68
78064;BME280;67429;51.596;-3.264;2023-07-13T00:11:51;99365.67;;;12.23;66.66
78064;BME280;67429;51.596;-3.264;2023-07-13T00:14:14;99359.31;;;13.14;64.46
78064;BME280;67429;51.596;-3.264;2023-07-13T00:16:40;99360.93;;;13.31;64.25
78064;BME280;67429;51.596;-3.264;2023-07-13T00:19:06;99360.53;;;13.99;62.88
78064;BME280;67429;51.596;-3.264;2023-07-13T00:21:31;99357.85;;;14.06;62.14
78064;BME280;67429;51.596;-3.264;2023-07-13T00:23:57;99357.36;;;13.64;63.47
78064;BME280;67429;51.596;-3.264;2023-07-13T00:26:22;99353.23;;;13.82;62.34
78064;BME280;67429;51.596;-3.264;2023-07-13T00:28:47;99358.17;;;14.16;61.56
78064;BME280;67429;51.596;-3.264;2023-07-13T00:31:14;99357.26;;;14.46;60.55
78064;BME280;67429;51.596;-3.264;2023-07-13T00:33:39;99357.87;;;15.10;58.96
78064;BME280;67429;51.596;-3.264;2023-07-13T00:36:04;99355.50;;;14.43;60.91
78064;BME280;67429;51.596;-3.264;2023-07-13T00:38:30;99360.16;;;13.80;61.94
78064;BME280;67429;51.596;-3.264;2023-07-13T00:40:55;99356.48;;;13.59;63.03
78064;BME280;67429;51.596;-3.264;2023-07-13T00:43:26;99353.54;;;13.69;61.85
78064;BME280;67429;51.596;-3.264;2023-07-13T00:48:14;99356.83;;;14.24;60.70
78064;BME280;67429;51.596;-3.264;2023-07-13T00:50:38;99353.36;;;14.09;61.10
78064;BME280;67429;51.596;-3.264;2023-07-13T00:53:03;99354.71;;;13.70;63.63
78064;BME280;67429;51.596;-3.264;2023-07-13T00:55:28;99354.37;;;13.31;64.82
78064;BME280;67429;51.596;-3.264;2023-07-13T00:57:54;99356.31;;;13.15;66.10
78064;BME280;67429;51.596;-3.264;2023-07-13T01:00:21;99351.16;;;13.20;65.49
78064;BME280;67429;51.596;-3.264;2023-07-13T01:02:45;99353.90;;;13.60;64.94
78064;BME280;67429;51.596;-3.264;2023-07-13T01:05:11;99352.96;;;13.81;64.43
78064;BME280;67429;51.596;-3.264;2023-07-13T01:07:36;99356.49;;;13.63;64.84
78064;BME280;67429;51.596;-3.264;2023-07-13T01:10:01;99355.88;;;13.32;66.09
78064;BME280;67429;51.596;-3.264;2023-07-13T01:12:27;99354.18;;;13.67;65.59
78064;BME280;67429;51.596;-3.264;2023-07-13T01:14:57;99350.45;;;13.50;65.79
78064;BME280;67429;51.596;-3.264;2023-07-13T01:17:18;99346.36;;;14.17;64.41
78064;BME280;67429;51.596;-3.264;2023-07-13T01:19:44;99349.97;;;14.28;62.85
78064;BME280;67429;51.596;-3.264;2023-07-13T01:22:11;99344.14;;;14.11;63.41
78064;BME280;67429;51.596;-3.264;2023-07-13T01:24:35;99350.75;;;14.29;62.70
78064;BME280;67429;51.596;-3.264;2023-07-13T01:27:00;99351.84;;;14.49;62.20
78064;BME280;67429;51.596;-3.264;2023-07-13T01:29:25;99350.48;;;14.61;60.86
78064;BME280;67429;51.596;-3.264;2023-07-13T01:31:51;99347.98;;;14.91;59.79
78064;BME280;67429;51.596;-3.264;2023-07-13T01:34:16;99344.96;;;15.45;58.62
78064;BME280;67429;51.596;-3.264;2023-07-13T01:36:41;99334.50;;;16.07;56.92
78064;BME280;67429;51.596;-3.264;2023-07-13T01:39:07;99346.08;;;15.41;58.03
78064;BME280;67429;51.596;-3.264;2023-07-13T01:41:32;99341.97;;;15.01;58.18
78064;BME280;67429;51.596;-3.264;2023-07-13T01:43:58;99348.78;;;14.67;59.63
78064;BME280;67429;51.596;-3.264;2023-07-13T01:46:23;99349.08;;;14.64;60.56
78064;BME280;67429;51.596;-3.264;2023-07-13T01:48:48;99352.40;;;14.34;61.69
78064;BME280;67429;51.596;-3.264;2023-07-13T01:51:15;99354.05;;;14.87;60.54
78064;BME280;67429;51.596;-3.264;2023-07-13T01:53:39;99348.84;;;14.84;59.84
78064;BME280;67429;51.596;-3.264;2023-07-13T01:56:05;99350.43;;;14.62;60.29
78064;BME280;67429;51.596;-3.264;2023-07-13T01:58:31;99348.32;;;14.49;61.12
78064;BME280;67429;51.596;-3.264;2023-07-13T02:00:56;99347.14;;;13.78;63.09
78064;BME280;67429;51.596;-3.264;2023-07-13T02:03:21;99346.90;;;14.09;62.13
78064;BME280;67429;51.596;-3.264;2023-07-13T02:05:47;99344.12;;;13.46;63.37
78064;BME280;67429;51.596;-3.264;2023-07-13T02:08:13;99342.30;;;14.02;63.34
78064;BME280;67429;51.596;-3.264;2023-07-13T02:10:38;99341.45;;;14.37;62.41
78064;BME280;67429;51.596;-3.264;2023-07-13T02:13:05;99343.89;;;14.81;60.90
78064;BME280;67429;51.596;-3.264;2023-07-13T02:15:29;99340.18;;;15.04;59.40
78064;BME280;67429;51.596;-3.264;2023-07-13T02:17:55;99339.75;;;14.86;59.10
78064;BME280;67429;51.596;-3.264;2023-07-13T02:20:20;99339.03;;;14.66;59.69
78064;BME280;67429;51.596;-3.264;2023-07-13T02:22:46;99337.26;;;14.65;59.67
78064;BME280;67429;51.596;-3.264;2023-07-13T02:25:11;99334.07;;;14.33;61.45
78064;BME280;67429;51.596;-3.264;2023-07-13T02:27:37;99337.57;;;14.64;60.14
78064;BME280;67429;51.596;-3.264;2023-07-13T02:30:03;99334.95;;;14.08;61.83
78064;BME280;67429;51.596;-3.264;2023-07-13T02:32:28;99334.72;;;14.24;61.40
78064;BME280;67429;51.596;-3.264;2023-07-13T02:34:54;99332.63;;;14.71;59.40
78064;BME280;67429;51.596;-3.264;2023-07-13T02:37:20;99325.10;;;14.50;60.22
78064;BME280;67429;51.596;-3.264;2023-07-13T02:39:45;99327.91;;;14.33;61.73
78064;BME280;67429;51.596;-3.264;2023-07-13T02:42:10;99325.33;;;14.63;60.60
78064;BME280;67429;51.596;-3.264;2023-07-13T02:44:36;99323.46;;;15.16;59.61
78064;BME280;67429;51.596;-3.264;2023-07-13T02:47:01;99323.59;;;14.21;61.04
78064;BME280;67429;51.596;-3.264;2023-07-13T02:49:27;99320.30;;;14.29;60.54
78064;BME280;67429;51.596;-3.264;2023-07-13T02:51:52;99322.27;;;14.63;59.72
78064;BME280;67429;51.596;-3.264;2023-07-13T02:54:18;99320.06;;;13.81;60.26
78064;BME280;67429;51.596;-3.264;2023-07-13T02:56:43;99327.67;;;14.85;59.31
78064;BME280;67429;51.596;-3.264;2023-07-13T02:59:09;99330.35;;;14.10;60.80
78064;BME280;67429;51.596;-3.264;2023-07-13T03:01:35;99330.64;;;14.24;60.31
78064;BME280;67429;51.596;-3.264;2023-07-13T03:04:00;99331.40;;;14.39;60.30
78064;BME280;67429;51.596;-3.264;2023-07-13T03:06:25;99328.62;;;14.31;59.86
78064;BME280;67429;51.596;-3.264;2023-07-13T03:08:50;99327.01;;;14.07;61.03
78064;BME280;67429;51.596;-3.264;2023-07-13T03:11:19;99329.15;;;14.33;60.20
78064;BME280;67429;51.596;-3.264;2023-07-13T03:13:42;99330.36;;;14.59;59.81
78064;BME280;67429;51.596;-3.264;2023-07-13T03:16:08;99336.56;;;14.41;59.36
78064;BME280;67429;51.596;-3.264;2023-07-13T03:18:35;99339.73;;;14.44;59.39
78064;BME280;67429;51.596;-3.264;2023-07-13T03:20:58;99338.39;;;14.92;58.35
78064;BME280;67429;51.596;-3.264;2023-07-13T03:23:24;99335.36;;;14.94;57.70
78064;BME280;67429;51.596;-3.264;2023-07-13T03:25:50;99334.77;;;14.97;57.70
78064;BME280;67429;51.596;-3.264;2023-07-13T03:28:15;99333.59;;;15.47;57.22
78064;BME280;67429;51.596;-3.264;2023-07-13T03:30:41;99336.56;;;15.54;56.94
78064;BME280;67429;51.596;-3.264;2023-07-13T03:33:06;99333.84;;;15.80;55.88
78064;BME280;67429;51.596;-3.264;2023-07-13T03:35:31;99337.83;;;15.39;55.91
78064;BME280;67429;51.596;-3.264;2023-07-13T03:37:57;99339.12;;;15.68;56.00
78064;BME280;67429;51.596;-3.264;2023-07-13T03:40:22;99336.13;;;15.93;55.30
78064;BME280;67429;51.596;-3.264;2023-07-13T03:42:47;99332.15;;;15.99;54.99
78064;BME280;67429;51.596;-3.264;2023-07-13T03:45:12;99331.93;;;16.24;54.58
78064;BME280;67429;51.596;-3.264;2023-07-13T03:47:38;99332.07;;;16.23;54.73
78064;BME280;67429;51.596;-3.264;2023-07-13T03:50:04;99335.18;;;14.93;56.87
78064;BME280;67429;51.596;-3.264;2023-07-13T03:52:29;99338.68;;;15.11;56.56
78064;BME280;67429;51.596;-3.264;2023-07-13T03:54:54;99343.30;;;14.61;57.97
78064;BME280;67429;51.596;-3.264;2023-07-13T03:57:20;99340.34;;;14.69;57.98
78064;BME280;67429;51.596;-3.264;2023-07-13T03:59:45;99342.42;;;15.21;55.87
78064;BME280;67429;51.596;-3.264;2023-07-13T04:02:11;99346.41;;;15.37;55.14
78064;BME280;67429;51.596;-3.264;2023-07-13T04:04:36;99347.05;;;15.17;55.19
78064;BME280;67429;51.596;-3.264;2023-07-13T04:07:02;99348.14;;;15.90;54.48
78064;BME280;67429;51.596;-3.264;2023-07-13T04:09:28;99349.03;;;16.27;53.50
78064;BME280;67429;51.596;-3.264;2023-07-13T04:11:53;99360.65;;;15.49;54.38
78064;BME280;67429;51.596;-3.264;2023-07-13T04:14:19;99362.15;;;15.15;54.96
78064;BME280;67429;51.596;-3.264;2023-07-13T04:16:45;99360.72;;;15.87;53.57
78064;BME280;67429;51.596;-3.264;2023-07-13T04:19:10;99357.82;;;15.66;54.22
78064;BME280;67429;51.596;-3.264;2023-07-13T04:21:36;99362.36;;;15.28;54.69
78064;BME280;67429;51.596;-3.264;2023-07-13T04:24:01;99363.42;;;14.61;56.45
78064;BME280;67429;51.596;-3.264;2023-07-13T04:26:26;99366.38;;;14.94;57.09
78064;BME280;67429;51.596;-3.264;2023-07-13T04:28:52;99367.67;;;14.89;56.47
78064;BME280;67429;51.596;-3.264;2023-07-13T04:31:18;99368.15;;;14.59;57.82
78064;BME280;67429;51.596;-3.264;2023-07-13T04:33:43;99369.76;;;14.25;58.86
78064;BME280;67429;51.596;-3.264;2023-07-13T04:36:09;99375.84;;;15.06;57.00
78064;BME280;67429;51.596;-3.264;2023-07-13T04:38:35;99377.59;;;14.96;56.67
78064;BME280;67429;51.596;-3.264;2023-07-13T04:41:05;99373.66;;;15.48;55.60
78064;BME280;67429;51.596;-3.264;2023-07-13T04:43:26;99374.64;;;14.74;57.15
78064;BME280;67429;51.596;-3.264;2023-07-13T04:45:50;99375.77;;;14.58;58.80
78064;BME280;67429;51.596;-3.264;2023-07-13T04:48:16;99373.87;;;14.47;58.20
78064;BME280;67429;51.596;-3.264;2023-07-13T04:50:41;99371.85;;;14.54;58.60
78064;BME280;67429;51.596;-3.264;2023-07-13T04:53:07;99374.44;;;15.31;56.88
78064;BME280;67429;51.596;-3.264;2023-07-13T04:55:32;99378.52;;;15.25;56.54
78064;BME280;67429;51.596;-3.264;2023-07-13T04:57:58;99380.09;;;15.09;57.13
78064;BME280;67429;51.596;-3.264;2023-07-13T05:00:23;99378.06;;;15.03;56.82
78064;BME280;67429;51.596;-3.264;2023-07-13T05:02:48;99377.10;;;14.84;57.39
78064;BME280;67429;51.596;-3.264;2023-07-13T05:05:14;99375.40;;;15.24;56.58
78064;BME280;67429;51.596;-3.264;2023-07-13T05:07:39;99380.57;;;15.00;57.30
78064;BME280;67429;51.596;-3.264;2023-07-13T05:10:05;99380.87;;;15.69;55.50
78064;BME280;67429;51.596;-3.264;2023-07-13T05:12:30;99380.70;;;16.03;54.41
78064;BME280;67429;51.596;-3.264;2023-07-13T05:14:56;99379.43;;;15.85;54.93
78064;BME280;67429;51.596;-3.264;2023-07-13T05:17:20;99381.57;;;15.76;54.91
78064;BME280;67429;51.596;-3.264;2023-07-13T05:19:46;99382.21;;;15.78;55.37
78064;BME280;67429;51.596;-3.264;2023-07-13T05:22:12;99382.43;;;15.67;54.94
78064;BME280;67429;51.596;-3.264;2023-07-13T05:24:37;99382.37;;;16.26;54.26
78064;BME280;67429;51.596;-3.264;2023-07-13T05:27:03;99391.33;;;15.59;55.74
78064;BME280;67429;51.596;-3.264;2023-07-13T05:29:28;99388.03;;;15.67;55.00
78064;BME280;67429;51.596;-3.264;2023-07-13T05:31:54;99384.44;;;16.65;53.08
78064;BME280;67429;51.596;-3.264;2023-07-13T05:34:18;99384.11;;;16.28;53.43
78064;BME280;67429;51.596;-3.264;2023-07-13T05:36:44;99388.78;;;15.87;54.07
78064;BME280;67429;51.596;-3.264;2023-07-13T05:39:09;99391.54;;;15.62;55.70
78064;BME280;67429;51.596;-3.264;2023-07-13T05:41:36;99390.78;;;15.17;55.87
78064;BME280;67429;51.596;-3.264;2023-07-13T05:44:00;99394.16;;;15.63;55.87
78064;BME280;67429;51.596;-3.264;2023-07-13T05:46:25;99402.02;;;15.33;55.77
78064;BME280;67429;51.596;-3.264;2023-07-13T05:48:51;99406.61;;;15.66;55.70
78064;BME280;67429;51.596;-3.264;2023-07-13T05:51:16;99405.76;;;14.19;58.72
78064;BME280;67429;51.596;-3.264;2023-07-13T05:53:42;99410.74;;;14.60;57.99
78064;BME280;67429;51.596;-3.264;2023-07-13T05:56:07;99413.78;;;14.83;57.25
78064;BME280;67429;51.596;-3.264;2023-07-13T05:58:32;99413.87;;;15.07;56.96
78064;BME280;67429;51.596;-3.264;2023-07-13T06:01:00;99415.84;;;15.64;55.99
78064;BME280;67429;51.596;-3.264;2023-07-13T06:03:24;99423.68;;;15.93;55.21
78064;BME280;67429;51.596;-3.264;2023-07-13T06:05:49;99424.03;;;15.67;55.45
78064;BME280;67429;51.596;-3.264;2023-07-13T06:08:15;99422.06;;;15.98;54.52
78064;BME280;67429;51.596;-3.264;2023-07-13T06:10:40;99420.97;;;16.26;54.16
78064;BME280;67429;51.596;-3.264;2023-07-13T06:13:06;99429.05;;;15.38;55.92
78064;BME280;67429;51.596;-3.264;2023-07-13T06:15:31;99426.31;;;16.64;53.30
78064;BME280;67429;51.596;-3.264;2023-07-13T06:17:57;99428.55;;;17.12;51.83
78064;BME280;67429;51.596;-3.264;2023-07-13T06:20:22;99435.38;;;15.42;54.57
78064;BME280;67429;51.596;-3.264;2023-07-13T06:22:48;99436.39;;;16.48;54.04
78064;BME280;67429;51.596;-3.264;2023-07-13T06:25:13;99442.12;;;16.17;54.51
78064;BME280;67429;51.596;-3.264;2023-07-13T06:27:39;99441.91;;;16.82;53.30
78064;BME280;67429;51.596;-3.264;2023-07-13T06:30:05;99440.92;;;16.82;52.13
78064;BME280;67429;51.596;-3.264;2023-07-13T06:32:30;99444.61;;;17.16;51.54
78064;BME280;67429;51.596;-3.264;2023-07-13T06:34:55;99445.71;;;16.19;53.38
78064;BME280;67429;51.596;-3.264;2023-07-13T06:37:21;99444.08;;;16.69;52.94
78064;BME280;67429;51.596;-3.264;2023-07-13T06:39:46;99448.35;;;16.37;53.36
78064;BME280;67429;51.596;-3.264;2023-07-13T06:42:12;99454.26;;;15.67;55.53
78064;BME280;67429;51.596;-3.264;2023-07-13T06:44:37;99456.53;;;15.97;55.15
78064;BME280;67429;51.596;-3.264;2023-07-13T06:47:03;99449.69;;;16.60;53.62
78064;BME280;67429;51.596;-3.264;2023-07-13T06:49:28;99451.24;;;16.57;53.66
78064;BME280;67429;51.596;-3.264;2023-07-13T06:51:54;99451.40;;;17.00;52.56
78064;BME280;67429;51.596;-3.264;2023-07-13T06:54:19;99450.42;;;16.90;53.24
78064;BME280;67429;51.596;-3.264;2023-07-13T06:56:45;99452.98;;;17.32;53.02
78064;BME280;67429;51.596;-3.264;2023-07-13T06:59:10;99448.97;;;18.29;50.62
78064;BME280;67429;51.596;-3.264;2023-07-13T07:01:36;99452.54;;;17.65;51.03
78064;BME280;67429;51.596;-3.264;2023-07-13T07:04:01;99453.24;;;17.75;50.63
78064;BME280;67429;51.596;-3.264;2023-07-13T07:06:27;99453.75;;;16.69;52.35
78064;BME280;67429;51.596;-3.264;2023-07-13T07:08:52;99455.72;;;17.12;51.92
78064;BME280;67429;51.596;-3.264;2023-07-13T07:11:22;99457.94;;;16.53;53.63
78064;BME280;67429;51.596;-3.264;2023-07-13T07:13:43;99466.05;;;16.89;53.23
78064;BME280;67429;51.596;-3.264;2023-07-13T07:16:08;99467.89;;;16.56;54.05
78064;BME280;67429;51.596;-3.264;2023-07-13T07:18:34;99473.36;;;16.23;54.14
78064;BME280;67429;51.596;-3.264;2023-07-13T07:20:59;99474.29;;;16.38;54.40
78064;BME280;67429;51.596;-3.264;2023-07-13T07:23:25;99469.55;;;16.93;53.50
78064;BME280;67429;51.596;-3.264;2023-07-13T07:25:50;99470.84;;;17.59;52.50
78064;BME280;67429;51.596;-3.264;2023-07-13T07:28:16;99470.68;;;17.56;52.38
78064;BME280;67429;51.596;-3.264;2023-07-13T07:30:42;99471.76;;;16.90;52.59
78064;BME280;67429;51.596;-3.264;2023-07-13T07:33:06;99476.93;;;16.00;54.47
78064;BME280;67429;51.596;-3.264;2023-07-13T07:35:32;99473.84;;;16.73;53.71
78064;BME280;67429;51.596;-3.264;2023-07-13T07:37:57;99474.73;;;17.17;51.98
78064;BME280;67429;51.596;-3.264;2023-07-13T07:40:25;99478.49;;;18.38;50.05
78064;BME280;67429;51.596;-3.264;2023-07-13T07:42:48;99473.69;;;17.81;50.04
78064;BME280;67429;51.596;-3.264;2023-07-13T07:45:14;99475.87;;;17.39;51.01
78064;BME280;67429;51.596;-3.264;2023-07-13T07:47:39;99480.16;;;17.06;52.65
78064;BME280;67429;51.596;-3.264;2023-07-13T07:50:06;99486.06;;;17.06;51.99
78064;BME280;67429;51.596;-3.264;2023-07-13T07:52:31;99488.41;;;17.95;50.80
78064;BME280;67429;51.596;-3.264;2023-07-13T07:54:56;99487.90;;;16.72;53.23
78064;BME280;67429;51.596;-3.264;2023-07-13T07:57:22;99485.35;;;16.76;52.83
78064;BME280;67429;51.596;-3.264;2023-07-13T07:59:47;99478.64;;;17.33;52.19
78064;BME280;67429;51.596;-3.264;2023-07-13T08:02:13;99481.11;;;17.50;51.15
78064;BME280;67429;51.596;-3.264;2023-07-13T08:04:38;99486.14;;;16.95;52.49
78064;BME280;67429;51.596;-3.264;2023-07-13T08:07:03;99494.30;;;16.52;53.04
78064;BME280;67429;51.596;-3.264;2023-07-13T08:09:29;99489.94;;;17.04;51.77
78064;BME280;67429;51.596;-3.264;2023-07-13T08:11:54;99488.83;;;16.92;52.13
78064;BME280;67429;51.596;-3.264;2023-07-13T08:14:20;99490.03;;;17.45;50.04
78064;BME280;67429;51.596;-3.264;2023-07-13T08:16:45;99488.19;;;17.19;50.10
78064;BME280;67429;51.596;-3.264;2023-07-13T08:19:10;99485.83;;;17.47;49.62
78064;BME280;67429;51.596;-3.264;2023-07-13T08:21:35;99488.99;;;17.97;49.42
78064;BME280;67429;51.596;-3.264;2023-07-13T08:24:01;99488.42;;;17.64;49.68
78064;BME280;67429;51.596;-3.264;2023-07-13T08:26:26;99488.35;;;17.90;49.43
78064;BME280;67429;51.596;-3.264;2023-07-13T08:28:52;99486.75;;;17.26;51.03
78064;BME280;67429;51.596;-3.264;2023-07-13T08:31:17;99485.91;;;17.00;50.62
78064;BME280;67429;51.596;-3.264;2023-07-13T08:33:42;99485.13;;;17.01;51.73
78064;BME280;67429;51.596;-3.264;2023-07-13T08:36:08;99487.53;;;17.51;50.67
78064;BME280;67429;51.596;-3.264;2023-07-13T08:38:34;99487.28;;;16.97;51.10
78064;BME280;67429;51.596;-3.264;2023-07-13T08:40:58;99487.90;;;16.99;49.74
78064;BME280;67429;51.596;-3.264;2023-07-13T08:43:27;99491.30;;;17.27;49.74
78064;BME280;67429;51.596;-3.264;2023-07-13T08:45:52;99489.25;;;16.85;50.79
78064;BME280;67429;51.596;-3.264;2023-07-13T08:48:18;99493.49;;;16.50;51.85
78064;BME280;67429;51.596;-3.264;2023-07-13T08:50:47;99489.21;;;17.39;50.00
78064;BME280;67429;51.596;-3.264;2023-07-13T08:53:07;99488.86;;;17.63;49.71
78064;BME280;67429;51.596;-3.264;2023-07-13T08:55:34;99494.65;;;17.43;49.35
78064;BME280;67429;51.596;-3.264;2023-07-13T08:58:00;99495.45;;;17.54;49.20
78064;BME280;67429;51.596;-3.264;2023-07-13T09:00:22;99492.54;;;18.83;47.57
78064;BME280;67429;51.596;-3.264;2023-07-13T09:02:53;99493.74;;;19.02;46.41
78064;BME280;67429;51.596;-3.264;2023-07-13T09:05:15;99490.30;;;19.75;45.19
78064;BME280;67429;51.596;-3.264;2023-07-13T09:07:48;99488.45;;;19.57;44.23
78064;BME280;67429;51.596;-3.264;2023-07-13T09:10:14;99484.30;;;19.46;45.40
78064;BME280;67429;51.596;-3.264;2023-07-13T09:12:38;99484.76;;;20.01;44.11
78064;BME280;67429;51.596;-3.264;2023-07-13T09:14:56;99492.57;;;20.00;43.74
78064;BME280;67429;51.596;-3.264;2023-07-13T09:17:25;99492.34;;;20.79;42.18
78064;BME280;67429;51.596;-3.264;2023-07-13T09:19:49;99490.61;;;20.44;41.33
78064;BME280;67429;51.596;-3.264;2023-07-13T09:22:15;99493.45;;;19.86;42.15
78064;BME280;67429;51.596;-3.264;2023-07-13T09:24:38;99487.38;;;19.50;42.04
78064;BME280;67429;51.596;-3.264;2023-07-13T09:27:09;99497.99;;;20.53;39.89
78064;BME280;67429;51.596;-3.264;2023-07-13T09:29:30;99502.30;;;21.30;39.27
78064;BME280;67429;51.596;-3.264;2023-07-13T09:31:55;99497.84;;;19.27;42.23
78064;BME280;67429;51.596;-3.264;2023-07-13T09:34:18;99501.26;;;18.71;43.68
78064;BME280;67429;51.596;-3.264;2023-07-13T09:36:43;99500.57;;;19.39;44.32
78064;BME280;67429;51.596;-3.264;2023-07-13T09:39:13;99507.33;;;19.07;44.78
78064;BME280;67429;51.596;-3.264;2023-07-13T09:41:41;99507.18;;;18.91;44.57
78064;BME280;67429;51.596;-3.264;2023-07-13T09:44:02;99510.83;;;20.40;41.60
78064;BME280;67429;51.596;-3.264;2023-07-13T09:46:25;99510.76;;;20.08;41.64
78064;BME280;67429;51.596;-3.264;2023-07-13T09:48:50;99506.90;;;19.35;43.34
78064;BME280;67429;51.596;-3.264;2023-07-13T09:51:16;99501.61;;;19.21;43.42
78064;BME280;67429;51.596;-3.264;2023-07-13T09:53:42;99511.16;;;19.28;43.17
78064;BME280;67429;51.596;-3.264;2023-07-13T09:56:19;99515.55;;;19.21;43.46
78064;BME280;67429;51.596;-3.264;2023-07-13T09:58:35;99513.17;;;18.66;44.82
78064;BME280;67429;51.596;-3.264;2023-07-13T10:00:59;99514.21;;;19.44;43.63
78064;BME280;67429;51.596;-3.264;2023-07-13T10:03:25;99519.96;;;19.40;43.57
78064;BME280;67429;51.596;-3.264;2023-07-13T10:05:50;99520.94;;;19.43;42.89
78064;BME280;67429;51.596;-3.264;2023-07-13T10:08:20;99522.09;;;19.13;42.59
78064;BME280;67429;51.596;-3.264;2023-07-13T10:10:39;99524.48;;;18.73;44.66
78064;BME280;67429;51.596;-3.264;2023-07-13T10:13:04;99530.62;;;19.74;42.68
78064;BME280;67429;51.596;-3.264;2023-07-13T10:15:30;99517.48;;;19.49;42.93
78064;BME280;67429;51.596;-3.264;2023-07-13T10:17:56;99530.33;;;19.97;42.31
78064;BME280;67429;51.596;-3.264;2023-07-13T10:20:21;99536.27;;;19.99;41.71
78064;BME280;67429;51.596;-3.264;2023-07-13T10:22:53;99538.15;;;18.25;45.16
78064;BME280;67429;51.596;-3.264;2023-07-13T10:25:16;99537.12;;;19.58;43.22
78064;BME280;67429;51.596;-3.264;2023-07-13T10:27:37;99535.91;;;19.54;43.38
78064;BME280;67429;51.596;-3.264;2023-07-13T10:30:09;99540.58;;;20.90;41.43
78064;BME280;67429;51.596;-3.264;2023-07-13T10:32:28;99544.00;;;20.49;40.64
78064;BME280;67429;51.596;-3.264;2023-07-13T10:34:53;99541.18;;;19.77;41.03
78064;BME280;67429;51.596;-3.264;2023-07-13T10:37:22;99542.43;;;20.11;41.13
78064;BME280;67429;51.596;-3.264;2023-07-13T10:39:44;99543.55;;;20.27;40.97
78064;BME280;67429;51.596;-3.264;2023-07-13T10:42:13;99539.36;;;21.08;40.29
78064;BME280;67429;51.596;-3.264;2023-07-13T10:44:35;99535.71;;;21.57;39.80
78064;BME280;67429;51.596;-3.264;2023-07-13T10:47:04;99544.00;;;21.30;39.67
78064;BME280;67429;51.596;-3.264;2023-07-13T10:49:28;99558.48;;;20.76;41.11
78064;BME280;67429;51.596;-3.264;2023-07-13T10:51:51;99556.53;;;21.24;40.31
78064;BME280;67429;51.596;-3.264;2023-07-13T10:54:19;99560.51;;;20.34;42.89
78064;BME280;67429;51.596;-3.264;2023-07-13T10:56:42;99555.98;;;19.45;44.84
78064;BME280;67429;51.596;-3.264;2023-07-13T10:59:12;99558.32;;;19.89;44.68
78064;BME280;67429;51.596;-3.264;2023-07-13T11:01:39;99557.79;;;19.83;44.55
78064;BME280;67429;51.596;-3.264;2023-07-13T11:04:02;99558.20;;;20.35;43.34
78064;BME280;67429;51.596;-3.264;2023-07-13T11:06:31;99550.88;;;20.56;43.37
78064;BME280;67429;51.596;-3.264;2023-07-13T11:08:54;99552.63;;;20.05;41.73
78064;BME280;67429;51.596;-3.264;2023-07-13T11:11:34;99553.26;;;21.51;40.46
78064;BME280;67429;51.596;-3.264;2023-07-13T11:16:12;99552.64;;;20.91;40.04
78064;BME280;67429;51.596;-3.264;2023-07-13T11:18:30;99546.12;;;20.41;40.67
78064;BME280;67429;51.596;-3.264;2023-07-13T11:23:28;99547.03;;;20.21;41.34
78064;BME280;67429;51.596;-3.264;2023-07-13T11:25:47;99548.06;;;19.58;42.38
78064;BME280;67429;51.596;-3.264;2023-07-13T11:28:17;99552.24;;;17.97;45.28
78064;BME280;67429;51.596;-3.264;2023-07-13T11:30:39;99552.38;;;18.35;44.68
78064;BME280;67429;51.596;-3.264;2023-07-13T11:35:28;99549.23;;;19.53;42.86
78064;BME280;67429;51.596;-3.264;2023-07-13T11:37:54;99553.48;;;20.09;41.59
78064;BME280;67429;51.596;-3.264;2023-07-13T11:40:22;99548.58;;;17.41;46.97
78064;BME280;67429;51.596;-3.264;2023-07-13T11:42:45;99550.44;;;17.96;46.59
78064;BME280;67429;51.596;-3.264;2023-07-13T11:45:19;99549.48;;;19.42;45.08
78064;BME280;67429;51.596;-3.264;2023-07-13T11:47:40;99548.20;;;19.86;42.97
78064;BME280;67429;51.596;-3.264;2023-07-13T11:50:01;99546.65;;;19.44;42.22
78064;BME280;67429;51.596;-3.264;2023-07-13T11:52:32;99546.78;;;18.26;44.96
78064;BME280;67429;51.596;-3.264;2023-07-13T11:54:53;99544.40;;;19.50;43.37
78064;BME280;67429;51.596;-3.264;2023-07-13T11:57:24;99550.25;;;20.29;42.13
78064;BME280;67429;51.596;-3.264;2023-07-13T11:59:43;99548.32;;;18.83;44.68
78064;BME280;67429;51.596;-3.264;2023-07-13T12:02:14;99547.27;;;18.75;44.80
78064;BME280;67429;51.596;-3.264;2023-07-13T12:04:34;99540.49;;;18.13;45.60
78064;BME280;67429;51.596;-3.264;2023-07-13T12:07:05;99552.06;;;18.56;44.34
78064;BME280;67429;51.596;-3.264;2023-07-13T12:09:27;99546.53;;;19.07;42.94
78064;BME280;67429;51.596;-3.264;2023-07-13T12:11:50;99555.85;;;18.67;44.35
78064;BME280;67429;51.596;-3.264;2023-07-13T12:14:16;99556.01;;;18.22;44.43
78064;BME280;67429;51.596;-3.264;2023-07-13T12:16:41;99555.40;;;17.87;44.57
78064;BME280;67429;51.596;-3.264;2023-07-13T12:19:16;99551.88;;;18.31;44.24
78064;BME280;67429;51.596;-3.264;2023-07-13T12:21:36;99550.16;;;17.62;46.90
78064;BME280;67429;51.596;-3.264;2023-07-13T12:23:57;99558.92;;;17.34;48.26
78064;BME280;67429;51.596;-3.264;2023-07-13T12:26:22;99553.24;;;17.40;47.55
78064;BME280;67429;51.596;-3.264;2023-07-13T12:28:49;99553.87;;;17.96;45.83
78064;BME280;67429;51.596;-3.264;2023-07-13T12:31:29;99562.35;;;17.88;47.19
78064;BME280;67429;51.596;-3.264;2023-07-13T12:33:39;99553.73;;;17.82;46.91
78064;BME280;67429;51.596;-3.264;2023-07-13T12:36:05;99552.85;;;17.27;47.39
78064;BME280;67429;51.596;-3.264;2023-07-13T12:38:31;99551.69;;;18.51;45.48
78064;BME280;67429;51.596;-3.264;2023-07-13T12:40:55;99561.39;;;18.65;45.54
78064;BME280;67429;51.596;-3.264;2023-07-13T12:43:21;99557.67;;;18.01;45.50
78064;BME280;67429;51.596;-3.264;2023-07-13T12:45:57;99562.17;;;18.75;45.10
78064;BME280;67429;51.596;-3.264;2023-07-13T12:48:14;99560.18;;;17.74;45.76
78064;BME280;67429;51.596;-3.264;2023-07-13T12:50:39;99559.77;;;17.05;47.06